sensor_id;sensor_type;location;lat;lon;timestamp;P1;durP1;ratioP1;P2;durP2;ratioP2
7503;SDS011;3793;48.136;11.536;2022-12-29T00:01:34;2.63;;;1.93;;
7503;SDS011;3793;48.136;11.536;2022-12-29T00:04:03;2.73;;;1.67;;
7503;SDS011;3793;48.136;11.536;2022-12-29T00:06:30;2.57;;;1.60;;
7503;SDS011;3793;48.136;11.536;2022-12-29T00:08:57;1.70;;;1.53;;
7503;SDS011;3793;48.136;11.536;2022-12-29T00:11:24;1.80;;;1.50;;
7503;SDS011;3793;48.136;11.536;2022-12-29T00:13:51;1.70;;;1.40;;
7503;SDS011;3793;48.136;11.536;2022-12-29T00:16:35;1.67;;;1.30;;
7503;SDS011;3793;48.136;11.536;2022-12-29T00:19:04;1.50;;;1.40;;
7503;SDS011;3793;48.136;11.536;2022-12-29T00:21:31;2.30;;;1.70;;
7503;SDS011;3793;48.136;11.536;2022-12-29T00:24:29;1.63;;;1.30;;
7503;SDS011;3793;48.136;11.536;2022-12-29T00:27:13;1.70;;;1.50;;
7503;SDS011;3793;48.136;11.536;2022-12-29T00:30:04;1.90;;;1.60;;
7503;SDS011;3793;48.136;11.536;2022-12-29T00:32:51;1.37;;;1.27;;
7503;SDS011;3793;48.136;11.536;2022-12-29T00:35:38;1.43;;;1.33;;
7503;SDS011;3793;48.136;11.536;2022-12-29T00:38:05;1.43;;;1.13;;
7503;SDS011;3793;48.136;11.536;2022-12-29T00:40:51;1.23;;;1.13;;
7503;SDS011;3793;48.136;11.536;2022-12-29T00:43:35;1.27;;;1.17;;
7503;SDS011;3793;48.136;11.536;2022-12-29T00:46:18;1.57;;;1.13;;
7503;SDS011;3793;48.136;11.536;2022-12-29T00:48:45;1.40;;;1.30;;
7503;SDS011;3793;48.136;11.536;2022-12-29T00:51:39;1.40;;;1.30;;
7503;SDS011;3793;48.136;11.536;2022-12-29T00:54:06;1.73;;;1.30;;
7503;SDS011;3793;48.136;11.536;2022-12-29T00:56:32;1.93;;;1.33;;
7503;SDS011;3793;48.136;11.536;2022-12-29T00:58:59;1.77;;;1.30;;
7503;SDS011;3793;48.136;11.536;2022-12-29T01:01:26;1.97;;;1.40;;
7503;SDS011;3793;48.136;11.536;2022-12-29T01:03:53;1.40;;;1.30;;
7503;SDS011;3793;48.136;11.536;2022-12-29T01:06:19;1.40;;;1.30;;
7503;SDS011;3793;48.136;11.536;2022-12-29T01:08:47;1.33;;;1.23;;
7503;SDS011;3793;48.136;11.536;2022-12-29T01:11:34;2.33;;;1.43;;
7503;SDS011;3793;48.136;11.536;2022-12-29T01:14:00;1.67;;;1.20;;
7503;SDS011;3793;48.136;11.536;2022-12-29T01:16:26;2.53;;;1.20;;
7503;SDS011;3793;48.136;11.536;2022-12-29T01:18:53;1.40;;;1.23;;
7503;SDS011;3793;48.136;11.536;2022-12-29T01:21:19;1.83;;;1.20;;
7503;SDS011;3793;48.136;11.536;2022-12-29T01:23:47;1.93;;;1.50;;
7503;SDS011;3793;48.136;11.536;2022-12-29T01:26:15;8.80;;;2.73;;
7503;SDS011;3793;48.136;11.536;2022-12-29T01:28:42;3.33;;;1.60;;
7503;SDS011;3793;48.136;11.536;2022-12-29T01:31:09;1.73;;;1.60;;
7503;SDS011;3793;48.136;11.536;2022-12-29T01:33:36;2.10;;;1.27;;
7503;SDS011;3793;48.136;11.536;2022-12-29T01:36:03;2.30;;;1.30;;
7503;SDS011;3793;48.136;11.536;2022-12-29T01:38:30;1.20;;;1.10;;
7503;SDS011;3793;48.136;11.536;2022-12-29T01:40:58;1.63;;;1.40;;
7503;SDS011;3793;48.136;11.536;2022-12-29T01:43:37;1.77;;;1.27;;
7503;SDS011;3793;48.136;11.536;2022-12-29T01:46:04;2.03;;;1.30;;
7503;SDS011;3793;48.136;11.536;2022-12-29T01:48:33;1.37;;;1.07;;
7503;SDS011;3793;48.136;11.536;2022-12-29T01:51:00;1.20;;;1.10;;
7503;SDS011;3793;48.136;11.536;2022-12-29T01:53:27;1.77;;;1.23;;
7503;SDS011;3793;48.136;11.536;2022-12-29T01:55:57;0.80;;;0.80;;
7503;SDS011;3793;48.136;11.536;2022-12-29T01:58:29;1.10;;;1.00;;
7503;SDS011;3793;48.136;11.536;2022-12-29T02:00:56;1.80;;;0.90;;
7503;SDS011;3793;48.136;11.536;2022-12-29T02:03:24;1.20;;;1.10;;
7503;SDS011;3793;48.136;11.536;2022-12-29T02:05:54;1.10;;;1.00;;
7503;SDS011;3793;48.136;11.536;2022-12-29T02:08:22;0.87;;;0.87;;
7503;SDS011;3793;48.136;11.536;2022-12-29T02:10:51;1.60;;;1.17;;
7503;SDS011;3793;48.136;11.536;2022-12-29T02:13:17;1.20;;;1.10;;
7503;SDS011;3793;48.136;11.536;2022-12-29T02:15:47;1.27;;;1.17;;
7503;SDS011;3793;48.136;11.536;2022-12-29T02:18:20;1.23;;;1.10;;
7503;SDS011;3793;48.136;11.536;2022-12-29T02:20:57;1.27;;;1.17;;
7503;SDS011;3793;48.136;11.536;2022-12-29T02:26:21;1.20;;;1.10;;
7503;SDS011;3793;48.136;11.536;2022-12-29T02:28:57;1.23;;;1.13;;
7503;SDS011;3793;48.136;11.536;2022-12-29T02:31:33;2.27;;;1.23;;
7503;SDS011;3793;48.136;11.536;2022-12-29T02:34:03;1.40;;;1.10;;
7503;SDS011;3793;48.136;11.536;2022-12-29T02:36:36;1.20;;;1.10;;
7503;SDS011;3793;48.136;11.536;2022-12-29T02:39:08;1.10;;;1.00;;
7503;SDS011;3793;48.136;11.536;2022-12-29T02:41:40;0.93;;;0.93;;
7503;SDS011;3793;48.136;11.536;2022-12-29T02:44:11;1.00;;;1.00;;
7503;SDS011;3793;48.136;11.536;2022-12-29T02:46:43;1.17;;;1.07;;
7503;SDS011;3793;48.136;11.536;2022-12-29T02:49:11;2.00;;;1.20;;
7503;SDS011;3793;48.136;11.536;2022-12-29T02:51:43;1.40;;;1.00;;
7503;SDS011;3793;48.136;11.536;2022-12-29T02:54:10;1.47;;;1.33;;
7503;SDS011;3793;48.136;11.536;2022-12-29T02:56:54;1.00;;;0.90;;
7503;SDS011;3793;48.136;11.536;2022-12-29T02:59:20;1.40;;;1.30;;
7503;SDS011;3793;48.136;11.536;2022-12-29T03:01:55;1.23;;;1.20;;
7503;SDS011;3793;48.136;11.536;2022-12-29T03:05:00;1.00;;;1.00;;
7503;SDS011;3793;48.136;11.536;2022-12-29T03:07:32;1.60;;;1.37;;
7503;SDS011;3793;48.136;11.536;2022-12-29T03:10:04;1.03;;;0.90;;
7503;SDS011;3793;48.136;11.536;2022-12-29T03:12:38;1.90;;;1.10;;
7503;SDS011;3793;48.136;11.536;2022-12-29T03:15:24;1.27;;;1.10;;
7503;SDS011;3793;48.136;11.536;2022-12-29T03:18:12;1.20;;;1.10;;
7503;SDS011;3793;48.136;11.536;2022-12-29T03:20:41;1.13;;;1.10;;
7503;SDS011;3793;48.136;11.536;2022-12-29T03:23:11;1.27;;;1.03;;
7503;SDS011;3793;48.136;11.536;2022-12-29T03:25:39;1.23;;;1.00;;
7503;SDS011;3793;48.136;11.536;2022-12-29T03:28:07;1.83;;;1.57;;
7503;SDS011;3793;48.136;11.536;2022-12-29T03:30:35;3.47;;;1.13;;
7503;SDS011;3793;48.136;11.536;2022-12-29T03:33:02;1.63;;;1.07;;
7503;SDS011;3793;48.136;11.536;2022-12-29T03:35:32;1.50;;;1.20;;
7503;SDS011;3793;48.136;11.536;2022-12-29T03:38:02;1.47;;;1.10;;
7503;SDS011;3793;48.136;11.536;2022-12-29T03:40:32;1.20;;;1.10;;
7503;SDS011;3793;48.136;11.536;2022-12-29T03:43:00;1.60;;;1.30;;
7503;SDS011;3793;48.136;11.536;2022-12-29T03:45:28;1.33;;;1.00;;
7503;SDS011;3793;48.136;11.536;2022-12-29T03:47:54;1.27;;;1.13;;
7503;SDS011;3793;48.136;11.536;2022-12-29T03:50:21;0.80;;;0.80;;
7503;SDS011;3793;48.136;11.536;2022-12-29T03:52:49;1.10;;;1.00;;
7503;SDS011;3793;48.136;11.536;2022-12-29T03:55:15;2.50;;;1.23;;
7503;SDS011;3793;48.136;11.536;2022-12-29T03:57:42;1.90;;;1.17;;
7503;SDS011;3793;48.136;11.536;2022-12-29T04:00:09;1.33;;;1.23;;
7503;SDS011;3793;48.136;11.536;2022-12-29T04:02:35;1.70;;;1.30;;
7503;SDS011;3793;48.136;11.536;2022-12-29T04:05:02;1.87;;;1.13;;
7503;SDS011;3793;48.136;11.536;2022-12-29T04:07:29;1.37;;;1.27;;
7503;SDS011;3793;48.136;11.536;2022-12-29T04:09:57;1.33;;;1.00;;
7503;SDS011;3793;48.136;11.536;2022-12-29T04:12:23;1.23;;;1.10;;
7503;SDS011;3793;48.136;11.536;2022-12-29T04:14:50;2.00;;;1.20;;
7503;SDS011;3793;48.136;11.536;2022-12-29T04:17:16;1.20;;;1.10;;
7503;SDS011;3793;48.136;11.536;2022-12-29T04:19:43;1.90;;;1.20;;
7503;SDS011;3793;48.136;11.536;2022-12-29T04:22:09;1.60;;;1.13;;
7503;SDS011;3793;48.136;11.536;2022-12-29T04:24:36;1.37;;;1.23;;
7503;SDS011;3793;48.136;11.536;2022-12-29T04:27:04;1.47;;;1.27;;
7503;SDS011;3793;48.136;11.536;2022-12-29T04:29:31;1.47;;;1.30;;
7503;SDS011;3793;48.136;11.536;2022-12-29T04:31:57;1.33;;;1.23;;
7503;SDS011;3793;48.136;11.536;2022-12-29T04:34:24;1.90;;;1.33;;
7503;SDS011;3793;48.136;11.536;2022-12-29T04:36:50;1.60;;;1.33;;
7503;SDS011;3793;48.136;11.536;2022-12-29T04:39:17;1.73;;;1.20;;
7503;SDS011;3793;48.136;11.536;2022-12-29T04:41:43;1.53;;;1.10;;
7503;SDS011;3793;48.136;11.536;2022-12-29T04:44:12;2.23;;;1.20;;
7503;SDS011;3793;48.136;11.536;2022-12-29T04:46:39;1.47;;;1.10;;
7503;SDS011;3793;48.136;11.536;2022-12-29T04:49:06;2.67;;;1.20;;
7503;SDS011;3793;48.136;11.536;2022-12-29T04:51:33;1.40;;;1.10;;
7503;SDS011;3793;48.136;11.536;2022-12-29T04:54:00;3.20;;;1.33;;
7503;SDS011;3793;48.136;11.536;2022-12-29T04:56:26;1.70;;;1.17;;
7503;SDS011;3793;48.136;11.536;2022-12-29T04:58:53;1.20;;;1.10;;
7503;SDS011;3793;48.136;11.536;2022-12-29T05:01:21;1.07;;;0.93;;
7503;SDS011;3793;48.136;11.536;2022-12-29T05:03:49;2.73;;;1.23;;
7503;SDS011;3793;48.136;11.536;2022-12-29T05:06:16;1.60;;;1.30;;
7503;SDS011;3793;48.136;11.536;2022-12-29T05:08:42;1.60;;;1.00;;
7503;SDS011;3793;48.136;11.536;2022-12-29T05:11:09;2.53;;;1.10;;
7503;SDS011;3793;48.136;11.536;2022-12-29T05:13:35;1.30;;;1.20;;
7503;SDS011;3793;48.136;11.536;2022-12-29T05:16:02;2.00;;;1.20;;
7503;SDS011;3793;48.136;11.536;2022-12-29T05:18:30;1.20;;;1.10;;
7503;SDS011;3793;48.136;11.536;2022-12-29T05:20:56;1.33;;;1.10;;
7503;SDS011;3793;48.136;11.536;2022-12-29T05:23:23;1.53;;;1.30;;
7503;SDS011;3793;48.136;11.536;2022-12-29T05:25:50;1.37;;;1.20;;
7503;SDS011;3793;48.136;11.536;2022-12-29T05:28:16;1.77;;;1.10;;
7503;SDS011;3793;48.136;11.536;2022-12-29T05:30:43;1.37;;;1.10;;
7503;SDS011;3793;48.136;11.536;2022-12-29T05:33:09;1.20;;;1.10;;
7503;SDS011;3793;48.136;11.536;2022-12-29T05:35:38;1.20;;;1.00;;
7503;SDS011;3793;48.136;11.536;2022-12-29T05:38:05;2.33;;;1.07;;
7503;SDS011;3793;48.136;11.536;2022-12-29T05:40:32;1.67;;;1.50;;
7503;SDS011;3793;48.136;11.536;2022-12-29T05:42:58;1.83;;;1.10;;
7503;SDS011;3793;48.136;11.536;2022-12-29T05:45:25;2.33;;;1.23;;
7503;SDS011;3793;48.136;11.536;2022-12-29T05:47:51;1.10;;;1.00;;
7503;SDS011;3793;48.136;11.536;2022-12-29T05:50:18;1.30;;;1.20;;
7503;SDS011;3793;48.136;11.536;2022-12-29T05:52:46;1.10;;;1.10;;
7503;SDS011;3793;48.136;11.536;2022-12-29T05:55:13;1.23;;;1.10;;
7503;SDS011;3793;48.136;11.536;2022-12-29T05:57:39;1.13;;;1.00;;
7503;SDS011;3793;48.136;11.536;2022-12-29T06:00:06;1.30;;;1.20;;
7503;SDS011;3793;48.136;11.536;2022-12-29T06:02:33;1.23;;;1.07;;
7503;SDS011;3793;48.136;11.536;2022-12-29T06:05:00;2.20;;;1.20;;
7503;SDS011;3793;48.136;11.536;2022-12-29T06:07:26;1.63;;;1.13;;
7503;SDS011;3793;48.136;11.536;2022-12-29T06:09:54;2.77;;;1.13;;
7503;SDS011;3793;48.136;11.536;2022-12-29T06:12:21;2.70;;;1.40;;
7503;SDS011;3793;48.136;11.536;2022-12-29T06:14:47;1.37;;;0.90;;
7503;SDS011;3793;48.136;11.536;2022-12-29T06:17:14;1.10;;;1.00;;
7503;SDS011;3793;48.136;11.536;2022-12-29T06:19:40;1.10;;;1.00;;
7503;SDS011;3793;48.136;11.536;2022-12-29T06:22:07;1.43;;;1.10;;
7503;SDS011;3793;48.136;11.536;2022-12-29T06:24:35;1.13;;;1.00;;
7503;SDS011;3793;48.136;11.536;2022-12-29T06:27:03;1.17;;;1.07;;
7503;SDS011;3793;48.136;11.536;2022-12-29T06:29:30;2.50;;;1.27;;
7503;SDS011;3793;48.136;11.536;2022-12-29T06:31:57;0.90;;;0.90;;
7503;SDS011;3793;48.136;11.536;2022-12-29T06:34:23;2.50;;;1.40;;
7503;SDS011;3793;48.136;11.536;2022-12-29T06:36:51;1.70;;;1.10;;
7503;SDS011;3793;48.136;11.536;2022-12-29T06:39:18;4.33;;;1.20;;
7503;SDS011;3793;48.136;11.536;2022-12-29T06:41:44;2.20;;;1.20;;
7503;SDS011;3793;48.136;11.536;2022-12-29T06:44:12;1.50;;;1.20;;
7503;SDS011;3793;48.136;11.536;2022-12-29T06:46:39;2.10;;;1.33;;
7503;SDS011;3793;48.136;11.536;2022-12-29T06:49:05;2.00;;;1.70;;
7503;SDS011;3793;48.136;11.536;2022-12-29T06:51:32;2.07;;;1.40;;
7503;SDS011;3793;48.136;11.536;2022-12-29T06:53:58;3.07;;;1.30;;
7503;SDS011;3793;48.136;11.536;2022-12-29T06:56:25;2.00;;;1.40;;
7503;SDS011;3793;48.136;11.536;2022-12-29T06:58:52;2.73;;;1.50;;
7503;SDS011;3793;48.136;11.536;2022-12-29T07:01:20;3.77;;;1.63;;
7503;SDS011;3793;48.136;11.536;2022-12-29T07:03:46;1.80;;;1.40;;
7503;SDS011;3793;48.136;11.536;2022-12-29T07:06:13;2.33;;;1.17;;
7503;SDS011;3793;48.136;11.536;2022-12-29T07:08:39;2.27;;;1.40;;
7503;SDS011;3793;48.136;11.536;2022-12-29T07:11:06;2.37;;;1.47;;
7503;SDS011;3793;48.136;11.536;2022-12-29T07:13:33;3.10;;;1.50;;
7503;SDS011;3793;48.136;11.536;2022-12-29T07:16:04;1.70;;;1.30;;
7503;SDS011;3793;48.136;11.536;2022-12-29T07:18:34;2.37;;;1.30;;
7503;SDS011;3793;48.136;11.536;2022-12-29T07:21:01;1.97;;;1.47;;
7503;SDS011;3793;48.136;11.536;2022-12-29T07:23:28;2.83;;;1.40;;
7503;SDS011;3793;48.136;11.536;2022-12-29T07:25:58;1.90;;;1.50;;
7503;SDS011;3793;48.136;11.536;2022-12-29T07:28:25;1.47;;;1.37;;
7503;SDS011;3793;48.136;11.536;2022-12-29T07:30:51;2.27;;;1.53;;
7503;SDS011;3793;48.136;11.536;2022-12-29T07:33:18;2.33;;;1.40;;
7503;SDS011;3793;48.136;11.536;2022-12-29T07:35:46;1.53;;;1.27;;
7503;SDS011;3793;48.136;11.536;2022-12-29T07:38:13;2.23;;;1.43;;
7503;SDS011;3793;48.136;11.536;2022-12-29T07:40:39;1.20;;;1.10;;
7503;SDS011;3793;48.136;11.536;2022-12-29T07:43:06;1.13;;;0.90;;
7503;SDS011;3793;48.136;11.536;2022-12-29T07:45:33;1.57;;;1.40;;
7503;SDS011;3793;48.136;11.536;2022-12-29T07:47:59;3.47;;;1.20;;
7503;SDS011;3793;48.136;11.536;2022-12-29T07:50:27;2.33;;;1.33;;
7503;SDS011;3793;48.136;11.536;2022-12-29T07:52:55;2.53;;;1.30;;
7503;SDS011;3793;48.136;11.536;2022-12-29T07:55:21;1.80;;;1.50;;
7503;SDS011;3793;48.136;11.536;2022-12-29T07:57:48;1.50;;;1.40;;
7503;SDS011;3793;48.136;11.536;2022-12-29T08:00:15;2.40;;;1.83;;
7503;SDS011;3793;48.136;11.536;2022-12-29T08:02:42;3.83;;;1.53;;
7503;SDS011;3793;48.136;11.536;2022-12-29T08:05:08;3.90;;;1.77;;
7503;SDS011;3793;48.136;11.536;2022-12-29T08:07:35;1.90;;;1.70;;
7503;SDS011;3793;48.136;11.536;2022-12-29T08:10:03;1.07;;;1.00;;
7503;SDS011;3793;48.136;11.536;2022-12-29T08:12:30;2.40;;;1.67;;
7503;SDS011;3793;48.136;11.536;2022-12-29T08:14:56;2.87;;;1.73;;
7503;SDS011;3793;48.136;11.536;2022-12-29T08:17:22;2.30;;;1.60;;
7503;SDS011;3793;48.136;11.536;2022-12-29T08:19:49;2.53;;;1.30;;
7503;SDS011;3793;48.136;11.536;2022-12-29T08:22:16;1.83;;;1.27;;
7503;SDS011;3793;48.136;11.536;2022-12-29T08:24:42;1.93;;;1.33;;
7503;SDS011;3793;48.136;11.536;2022-12-29T08:27:10;1.70;;;1.47;;
7503;SDS011;3793;48.136;11.536;2022-12-29T08:29:37;1.60;;;1.30;;
7503;SDS011;3793;48.136;11.536;2022-12-29T08:32:03;2.27;;;1.53;;
7503;SDS011;3793;48.136;11.536;2022-12-29T08:34:31;2.60;;;1.27;;
7503;SDS011;3793;48.136;11.536;2022-12-29T08:36:58;1.50;;;1.20;;
7503;SDS011;3793;48.136;11.536;2022-12-29T08:39:24;2.00;;;1.53;;
7503;SDS011;3793;48.136;11.536;2022-12-29T08:41:51;2.30;;;1.33;;
7503;SDS011;3793;48.136;11.536;2022-12-29T08:44:19;1.93;;;1.40;;
7503;SDS011;3793;48.136;11.536;2022-12-29T08:46:45;2.07;;;1.63;;
7503;SDS011;3793;48.136;11.536;2022-12-29T08:49:12;1.83;;;1.33;;
7503;SDS011;3793;48.136;11.536;2022-12-29T08:51:38;1.70;;;1.33;;
7503;SDS011;3793;48.136;11.536;2022-12-29T08:54:05;3.43;;;1.50;;
7503;SDS011;3793;48.136;11.536;2022-12-29T08:56:32;1.70;;;1.30;;
7503;SDS011;3793;48.136;11.536;2022-12-29T08:58:58;3.10;;;1.53;;
7503;SDS011;3793;48.136;11.536;2022-12-29T09:01:26;1.40;;;1.20;;
7503;SDS011;3793;48.136;11.536;2022-12-29T09:03:53;1.60;;;1.17;;
7503;SDS011;3793;48.136;11.536;2022-12-29T09:06:20;2.30;;;1.17;;
7503;SDS011;3793;48.136;11.536;2022-12-29T09:08:46;2.33;;;1.33;;
7503;SDS011;3793;48.136;11.536;2022-12-29T09:11:14;3.63;;;1.20;;
7503;SDS011;3793;48.136;11.536;2022-12-29T09:13:40;1.30;;;1.20;;
7503;SDS011;3793;48.136;11.536;2022-12-29T09:16:07;2.03;;;1.20;;
7503;SDS011;3793;48.136;11.536;2022-12-29T09:18:35;2.70;;;1.23;;
7503;SDS011;3793;48.136;11.536;2022-12-29T09:21:03;2.07;;;1.30;;
7503;SDS011;3793;48.136;11.536;2022-12-29T09:23:30;2.53;;;1.50;;
7503;SDS011;3793;48.136;11.536;2022-12-29T09:25:56;1.97;;;1.40;;
7503;SDS011;3793;48.136;11.536;2022-12-29T09:28:23;6.30;;;1.50;;
7503;SDS011;3793;48.136;11.536;2022-12-29T09:30:50;1.90;;;1.57;;
7503;SDS011;3793;48.136;11.536;2022-12-29T09:33:17;1.90;;;1.30;;
7503;SDS011;3793;48.136;11.536;2022-12-29T09:35:49;2.17;;;1.40;;
7503;SDS011;3793;48.136;11.536;2022-12-29T09:38:16;1.43;;;1.33;;
7503;SDS011;3793;48.136;11.536;2022-12-29T09:40:43;2.10;;;1.40;;
7503;SDS011;3793;48.136;11.536;2022-12-29T09:43:25;1.90;;;1.30;;
7503;SDS011;3793;48.136;11.536;2022-12-29T09:45:55;2.90;;;1.10;;
7503;SDS011;3793;48.136;11.536;2022-12-29T09:48:27;2.23;;;1.53;;
7503;SDS011;3793;48.136;11.536;2022-12-29T09:50:57;2.37;;;1.50;;
7503;SDS011;3793;48.136;11.536;2022-12-29T09:53:25;1.90;;;1.20;;
7503;SDS011;3793;48.136;11.536;2022-12-29T09:55:54;4.63;;;1.30;;
7503;SDS011;3793;48.136;11.536;2022-12-29T09:58:22;3.77;;;1.23;;
7503;SDS011;3793;48.136;11.536;2022-12-29T10:00:52;1.63;;;1.37;;
7503;SDS011;3793;48.136;11.536;2022-12-29T10:03:20;2.43;;;1.40;;
7503;SDS011;3793;48.136;11.536;2022-12-29T10:05:48;1.83;;;1.40;;
7503;SDS011;3793;48.136;11.536;2022-12-29T10:08:22;2.40;;;1.40;;
7503;SDS011;3793;48.136;11.536;2022-12-29T10:10:54;3.93;;;1.57;;
7503;SDS011;3793;48.136;11.536;2022-12-29T10:13:25;3.07;;;1.40;;
7503;SDS011;3793;48.136;11.536;2022-12-29T10:15:56;1.53;;;1.00;;
7503;SDS011;3793;48.136;11.536;2022-12-29T10:18:31;3.83;;;1.40;;
7503;SDS011;3793;48.136;11.536;2022-12-29T10:21:00;1.67;;;1.30;;
7503;SDS011;3793;48.136;11.536;2022-12-29T10:23:31;1.73;;;1.60;;
7503;SDS011;3793;48.136;11.536;2022-12-29T10:26:00;2.07;;;1.73;;
7503;SDS011;3793;48.136;11.536;2022-12-29T10:28:31;1.63;;;1.20;;
7503;SDS011;3793;48.136;11.536;2022-12-29T10:31:00;2.60;;;1.30;;
7503;SDS011;3793;48.136;11.536;2022-12-29T10:33:30;2.07;;;1.50;;
7503;SDS011;3793;48.136;11.536;2022-12-29T10:35:58;1.93;;;1.27;;
7503;SDS011;3793;48.136;11.536;2022-12-29T10:38:25;2.10;;;1.17;;
7503;SDS011;3793;48.136;11.536;2022-12-29T10:40:56;1.60;;;1.30;;
7503;SDS011;3793;48.136;11.536;2022-12-29T10:43:25;1.97;;;1.20;;
7503;SDS011;3793;48.136;11.536;2022-12-29T10:45:52;2.73;;;1.40;;
7503;SDS011;3793;48.136;11.536;2022-12-29T10:48:20;5.73;;;1.47;;
7503;SDS011;3793;48.136;11.536;2022-12-29T10:50:48;2.67;;;1.50;;
7503;SDS011;3793;48.136;11.536;2022-12-29T10:53:17;1.97;;;1.47;;
7503;SDS011;3793;48.136;11.536;2022-12-29T10:55:45;2.57;;;1.60;;
7503;SDS011;3793;48.136;11.536;2022-12-29T10:58:13;1.70;;;1.60;;
7503;SDS011;3793;48.136;11.536;2022-12-29T11:00:40;2.00;;;1.50;;
7503;SDS011;3793;48.136;11.536;2022-12-29T11:03:14;3.70;;;1.30;;
7503;SDS011;3793;48.136;11.536;2022-12-29T11:05:45;2.27;;;1.80;;
7503;SDS011;3793;48.136;11.536;2022-12-29T11:08:13;2.40;;;1.33;;
7503;SDS011;3793;48.136;11.536;2022-12-29T11:10:42;2.10;;;1.30;;
7503;SDS011;3793;48.136;11.536;2022-12-29T11:13:14;3.60;;;1.60;;
7503;SDS011;3793;48.136;11.536;2022-12-29T11:15:41;1.90;;;1.50;;
7503;SDS011;3793;48.136;11.536;2022-12-29T11:18:18;1.87;;;1.40;;
7503;SDS011;3793;48.136;11.536;2022-12-29T11:20:45;4.43;;;1.60;;
7503;SDS011;3793;48.136;11.536;2022-12-29T11:23:21;2.63;;;1.53;;
7503;SDS011;3793;48.136;11.536;2022-12-29T11:25:51;2.13;;;1.40;;
7503;SDS011;3793;48.136;11.536;2022-12-29T11:28:36;1.27;;;1.17;;
7503;SDS011;3793;48.136;11.536;2022-12-29T11:31:03;1.37;;;1.23;;
7503;SDS011;3793;48.136;11.536;2022-12-29T11:33:31;2.20;;;1.30;;
7503;SDS011;3793;48.136;11.536;2022-12-29T11:35:58;1.77;;;1.27;;
7503;SDS011;3793;48.136;11.536;2022-12-29T11:38:30;1.33;;;1.07;;
7503;SDS011;3793;48.136;11.536;2022-12-29T11:40:58;3.83;;;0.90;;
7503;SDS011;3793;48.136;11.536;2022-12-29T11:43:26;1.90;;;1.20;;
7503;SDS011;3793;48.136;11.536;2022-12-29T11:45:57;4.07;;;0.90;;
7503;SDS011;3793;48.136;11.536;2022-12-29T11:48:24;2.10;;;1.20;;
7503;SDS011;3793;48.136;11.536;2022-12-29T11:50:52;1.13;;;0.97;;
7503;SDS011;3793;48.136;11.536;2022-12-29T11:53:20;2.53;;;1.30;;
7503;SDS011;3793;48.136;11.536;2022-12-29T11:55:52;1.70;;;1.00;;
7503;SDS011;3793;48.136;11.536;2022-12-29T11:58:19;1.00;;;0.90;;
7503;SDS011;3793;48.136;11.536;2022-12-29T12:00:46;1.07;;;1.00;;
7503;SDS011;3793;48.136;11.536;2022-12-29T12:03:17;1.50;;;1.10;;
7503;SDS011;3793;48.136;11.536;2022-12-29T12:05:46;3.70;;;1.03;;
7503;SDS011;3793;48.136;11.536;2022-12-29T12:08:16;2.87;;;1.17;;
7503;SDS011;3793;48.136;11.536;2022-12-29T12:10:46;1.63;;;1.20;;
7503;SDS011;3793;48.136;11.536;2022-12-29T12:13:18;1.87;;;1.10;;
7503;SDS011;3793;48.136;11.536;2022-12-29T12:15:47;2.27;;;1.00;;
7503;SDS011;3793;48.136;11.536;2022-12-29T12:18:18;2.67;;;1.20;;
7503;SDS011;3793;48.136;11.536;2022-12-29T12:20:48;1.20;;;0.90;;
7503;SDS011;3793;48.136;11.536;2022-12-29T12:23:22;1.53;;;1.30;;
7503;SDS011;3793;48.136;11.536;2022-12-29T12:25:54;2.47;;;1.10;;
7503;SDS011;3793;48.136;11.536;2022-12-29T12:28:25;1.27;;;1.10;;
7503;SDS011;3793;48.136;11.536;2022-12-29T12:30:53;1.40;;;1.07;;
7503;SDS011;3793;48.136;11.536;2022-12-29T12:33:24;1.23;;;1.03;;
7503;SDS011;3793;48.136;11.536;2022-12-29T12:35:56;4.17;;;1.30;;
7503;SDS011;3793;48.136;11.536;2022-12-29T12:38:27;1.90;;;1.13;;
7503;SDS011;3793;48.136;11.536;2022-12-29T12:40:58;1.63;;;1.03;;
7503;SDS011;3793;48.136;11.536;2022-12-29T12:43:37;1.00;;;0.90;;
7503;SDS011;3793;48.136;11.536;2022-12-29T12:46:10;2.43;;;1.00;;
7503;SDS011;3793;48.136;11.536;2022-12-29T12:48:47;0.83;;;0.80;;
7503;SDS011;3793;48.136;11.536;2022-12-29T12:51:20;2.13;;;0.90;;
7503;SDS011;3793;48.136;11.536;2022-12-29T12:53:56;2.13;;;1.30;;
7503;SDS011;3793;48.136;11.536;2022-12-29T12:59:11;3.50;;;1.00;;
7503;SDS011;3793;48.136;11.536;2022-12-29T13:01:42;1.80;;;1.20;;
7503;SDS011;3793;48.136;11.536;2022-12-29T13:04:19;3.37;;;1.37;;
7503;SDS011;3793;48.136;11.536;2022-12-29T13:06:54;1.57;;;1.20;;
7503;SDS011;3793;48.136;11.536;2022-12-29T13:09:29;2.00;;;1.10;;
7503;SDS011;3793;48.136;11.536;2022-12-29T13:12:08;1.40;;;1.17;;
7503;SDS011;3793;48.136;11.536;2022-12-29T13:14:40;0.87;;;0.83;;
7503;SDS011;3793;48.136;11.536;2022-12-29T13:17:10;2.50;;;0.80;;
7503;SDS011;3793;48.136;11.536;2022-12-29T13:19:43;1.37;;;1.13;;
7503;SDS011;3793;48.136;11.536;2022-12-29T13:22:13;1.40;;;1.10;;
7503;SDS011;3793;48.136;11.536;2022-12-29T13:24:47;2.20;;;1.20;;
7503;SDS011;3793;48.136;11.536;2022-12-29T13:27:18;1.80;;;1.10;;
7503;SDS011;3793;48.136;11.536;2022-12-29T13:29:50;1.77;;;1.10;;
7503;SDS011;3793;48.136;11.536;2022-12-29T13:32:25;1.90;;;1.20;;
7503;SDS011;3793;48.136;11.536;2022-12-29T13:35:00;1.47;;;1.23;;
7503;SDS011;3793;48.136;11.536;2022-12-29T13:37:29;1.27;;;1.17;;
7503;SDS011;3793;48.136;11.536;2022-12-29T13:39:59;1.97;;;1.30;;
7503;SDS011;3793;48.136;11.536;2022-12-29T13:42:28;2.27;;;1.50;;
7503;SDS011;3793;48.136;11.536;2022-12-29T13:44:57;4.13;;;1.10;;
7503;SDS011;3793;48.136;11.536;2022-12-29T13:47:26;2.50;;;1.30;;
7503;SDS011;3793;48.136;11.536;2022-12-29T13:49:54;1.83;;;1.30;;
7503;SDS011;3793;48.136;11.536;2022-12-29T13:52:32;2.40;;;1.30;;
7503;SDS011;3793;48.136;11.536;2022-12-29T13:55:07;1.87;;;1.10;;
7503;SDS011;3793;48.136;11.536;2022-12-29T13:57:45;1.87;;;1.20;;
7503;SDS011;3793;48.136;11.536;2022-12-29T14:00:15;2.57;;;1.10;;
7503;SDS011;3793;48.136;11.536;2022-12-29T14:02:46;1.77;;;1.33;;
7503;SDS011;3793;48.136;11.536;2022-12-29T14:05:28;1.30;;;1.10;;
7503;SDS011;3793;48.136;11.536;2022-12-29T14:08:01;1.63;;;1.20;;
7503;SDS011;3793;48.136;11.536;2022-12-29T14:10:29;1.30;;;1.10;;
7503;SDS011;3793;48.136;11.536;2022-12-29T14:13:04;2.93;;;1.17;;
7503;SDS011;3793;48.136;11.536;2022-12-29T14:15:32;2.87;;;1.60;;
7503;SDS011;3793;48.136;11.536;2022-12-29T14:18:03;1.63;;;1.20;;
7503;SDS011;3793;48.136;11.536;2022-12-29T14:20:32;1.33;;;1.13;;
7503;SDS011;3793;48.136;11.536;2022-12-29T14:23:01;2.33;;;1.20;;
7503;SDS011;3793;48.136;11.536;2022-12-29T14:25:54;1.73;;;1.13;;
7503;SDS011;3793;48.136;11.536;2022-12-29T14:28:22;1.87;;;1.30;;
7503;SDS011;3793;48.136;11.536;2022-12-29T14:30:51;1.83;;;1.17;;
7503;SDS011;3793;48.136;11.536;2022-12-29T14:33:19;3.23;;;1.80;;
7503;SDS011;3793;48.136;11.536;2022-12-29T14:35:47;1.73;;;1.40;;
7503;SDS011;3793;48.136;11.536;2022-12-29T14:38:19;2.57;;;1.50;;
7503;SDS011;3793;48.136;11.536;2022-12-29T14:40:47;2.00;;;1.40;;
7503;SDS011;3793;48.136;11.536;2022-12-29T14:43:17;1.67;;;1.30;;
7503;SDS011;3793;48.136;11.536;2022-12-29T14:45:48;3.17;;;1.77;;
7503;SDS011;3793;48.136;11.536;2022-12-29T14:48:35;5.87;;;1.70;;
7503;SDS011;3793;48.136;11.536;2022-12-29T14:51:02;4.33;;;1.70;;
7503;SDS011;3793;48.136;11.536;2022-12-29T14:53:45;2.53;;;1.77;;
7503;SDS011;3793;48.136;11.536;2022-12-29T14:56:13;2.53;;;1.53;;
7503;SDS011;3793;48.136;11.536;2022-12-29T14:58:43;2.73;;;1.93;;
7503;SDS011;3793;48.136;11.536;2022-12-29T15:01:17;5.30;;;2.53;;
7503;SDS011;3793;48.136;11.536;2022-12-29T15:03:44;2.80;;;1.97;;
7503;SDS011;3793;48.136;11.536;2022-12-29T15:06:12;3.43;;;2.60;;
7503;SDS011;3793;48.136;11.536;2022-12-29T15:08:46;5.00;;;2.20;;
7503;SDS011;3793;48.136;11.536;2022-12-29T15:11:15;3.53;;;2.20;;
7503;SDS011;3793;48.136;11.536;2022-12-29T15:13:43;5.90;;;2.60;;
7503;SDS011;3793;48.136;11.536;2022-12-29T15:16:20;6.47;;;2.57;;
7503;SDS011;3793;48.136;11.536;2022-12-29T15:18:48;4.03;;;2.17;;
7503;SDS011;3793;48.136;11.536;2022-12-29T15:21:14;7.50;;;2.60;;